Details for Ryanair at LEZL




Go Back


Latest METAR
Local Time

LEZL 181400Z 22005KT 150V300 9999 FEW045 33/17 Q1014 NOSIG
18/09/2018, 16:25:06

Description
Results
Ryanair Logo
Number of Pilots based at LEZL
0 Pilots Based here
Number of Ryanair Flights Departed from LEZL
3 Flights Departed
Number of Ryanair Flights Arrived at LEZL
5 Flights Arrived
Number of Ryanair Schedules Departing from LEZL
72 Schedules
Number of Ryanair Schedules Arriving at LEZL
73 Schedules
Number of Ryanair Schedules Departing from LEZL availible today
19 Schedules Today
Number of Ryanair Schedules Arriving at LEZL availible today
19 Schedules Today
Average Landing Rate at LEZL
-131 fpm
Ryanair Average Landing Rate at LEZL
-110 fpm
Total Fuel Purchased at LEZL by Ryanair
17,284.11 kgs / 38,104.55 lbs

Pilots Based at LEZL


Pilot ID
Pilot Name
Pilot Rank
No. of Flights
No. of Flying Hours
There are no pilots assigned to this hub!   Will you be the first?
Content